sensor_id;sensor_type;location;lat;lon;timestamp;P1;durP1;ratioP1;P2;durP2;ratioP2
4837;SDS011;2433;48.768;9.154;2022-12-08T00:01:59;12.30;;;5.13;;
4837;SDS011;2433;48.768;9.154;2022-12-08T00:04:25;7.18;;;4.35;;
4837;SDS011;2433;48.768;9.154;2022-12-08T00:06:50;8.57;;;4.20;;
4837;SDS011;2433;48.768;9.154;2022-12-08T00:09:37;6.22;;;4.97;;
4837;SDS011;2433;48.768;9.154;2022-12-08T00:12:05;6.75;;;5.38;;
4837;SDS011;2433;48.768;9.154;2022-12-08T00:14:33;8.48;;;5.20;;
4837;SDS011;2433;48.768;9.154;2022-12-08T00:17:00;8.43;;;5.88;;
4837;SDS011;2433;48.768;9.154;2022-12-08T00:19:27;6.25;;;4.85;;
4837;SDS011;2433;48.768;9.154;2022-12-08T00:21:54;11.95;;;5.10;;
4837;SDS011;2433;48.768;9.154;2022-12-08T00:24:20;6.30;;;5.13;;
4837;SDS011;2433;48.768;9.154;2022-12-08T00:26:46;8.02;;;5.70;;
4837;SDS011;2433;48.768;9.154;2022-12-08T00:29:12;7.40;;;5.47;;
4837;SDS011;2433;48.768;9.154;2022-12-08T00:31:38;6.38;;;4.63;;
4837;SDS011;2433;48.768;9.154;2022-12-08T00:34:04;6.50;;;5.30;;
4837;SDS011;2433;48.768;9.154;2022-12-08T00:36:30;8.15;;;5.03;;
4837;SDS011;2433;48.768;9.154;2022-12-08T00:38:55;7.93;;;5.63;;
4837;SDS011;2433;48.768;9.154;2022-12-08T00:41:22;7.60;;;6.25;;
4837;SDS011;2433;48.768;9.154;2022-12-08T00:44:09;6.40;;;5.70;;
4837;SDS011;2433;48.768;9.154;2022-12-08T00:46:37;8.02;;;5.60;;
4837;SDS011;2433;48.768;9.154;2022-12-08T00:49:03;10.20;;;5.10;;
4837;SDS011;2433;48.768;9.154;2022-12-08T00:51:29;9.38;;;5.35;;
4837;SDS011;2433;48.768;9.154;2022-12-08T00:53:55;10.13;;;5.90;;
4837;SDS011;2433;48.768;9.154;2022-12-08T00:56:21;8.90;;;5.23;;
4837;SDS011;2433;48.768;9.154;2022-12-08T00:58:46;8.30;;;6.10;;
4837;SDS011;2433;48.768;9.154;2022-12-08T01:01:12;8.63;;;6.73;;
4837;SDS011;2433;48.768;9.154;2022-12-08T01:03:39;14.18;;;5.82;;
4837;SDS011;2433;48.768;9.154;2022-12-08T01:06:05;10.68;;;5.55;;
4837;SDS011;2433;48.768;9.154;2022-12-08T01:08:31;9.52;;;5.30;;
4837;SDS011;2433;48.768;9.154;2022-12-08T01:11:11;9.07;;;5.80;;
4837;SDS011;2433;48.768;9.154;2022-12-08T01:13:38;8.32;;;5.82;;
4837;SDS011;2433;48.768;9.154;2022-12-08T01:16:04;6.93;;;4.37;;
4837;SDS011;2433;48.768;9.154;2022-12-08T01:18:30;6.33;;;5.00;;
4837;SDS011;2433;48.768;9.154;2022-12-08T01:21:00;9.93;;;5.57;;
4837;SDS011;2433;48.768;9.154;2022-12-08T01:23:29;7.85;;;4.80;;
4837;SDS011;2433;48.768;9.154;2022-12-08T01:25:59;8.50;;;4.37;;
4837;SDS011;2433;48.768;9.154;2022-12-08T01:28:25;6.40;;;4.60;;
4837;SDS011;2433;48.768;9.154;2022-12-08T01:30:51;9.37;;;4.97;;
4837;SDS011;2433;48.768;9.154;2022-12-08T01:33:16;6.70;;;4.67;;
4837;SDS011;2433;48.768;9.154;2022-12-08T01:35:42;7.30;;;4.93;;
4837;SDS011;2433;48.768;9.154;2022-12-08T01:38:07;6.63;;;4.60;;
4837;SDS011;2433;48.768;9.154;2022-12-08T01:40:33;8.13;;;4.77;;
4837;SDS011;2433;48.768;9.154;2022-12-08T01:42:58;8.27;;;4.67;;
4837;SDS011;2433;48.768;9.154;2022-12-08T01:45:25;8.77;;;5.43;;
4837;SDS011;2433;48.768;9.154;2022-12-08T01:47:53;6.70;;;4.00;;
4837;SDS011;2433;48.768;9.154;2022-12-08T01:50:24;8.23;;;4.80;;
4837;SDS011;2433;48.768;9.154;2022-12-08T01:52:55;6.75;;;4.55;;
4837;SDS011;2433;48.768;9.154;2022-12-08T01:55:27;7.88;;;5.00;;
4837;SDS011;2433;48.768;9.154;2022-12-08T01:57:57;5.90;;;4.85;;
4837;SDS011;2433;48.768;9.154;2022-12-08T02:00:26;8.35;;;5.30;;
4837;SDS011;2433;48.768;9.154;2022-12-08T02:02:53;10.43;;;4.73;;
4837;SDS011;2433;48.768;9.154;2022-12-08T02:05:22;9.18;;;6.40;;
4837;SDS011;2433;48.768;9.154;2022-12-08T02:07:50;9.48;;;6.05;;
4837;SDS011;2433;48.768;9.154;2022-12-08T02:10:17;10.60;;;6.05;;
4837;SDS011;2433;48.768;9.154;2022-12-08T02:12:45;9.20;;;5.43;;
4837;SDS011;2433;48.768;9.154;2022-12-08T02:15:12;6.45;;;5.55;;
4837;SDS011;2433;48.768;9.154;2022-12-08T02:17:48;9.13;;;5.85;;
4837;SDS011;2433;48.768;9.154;2022-12-08T02:26:06;8.60;;;5.40;;
4837;SDS011;2433;48.768;9.154;2022-12-08T02:32:07;7.90;;;4.78;;
4837;SDS011;2433;48.768;9.154;2022-12-08T02:37:25;7.22;;;4.43;;
4837;SDS011;2433;48.768;9.154;2022-12-08T02:40:05;6.88;;;5.40;;
4837;SDS011;2433;48.768;9.154;2022-12-08T02:45:38;10.65;;;6.03;;
4837;SDS011;2433;48.768;9.154;2022-12-08T02:48:05;10.38;;;5.63;;
4837;SDS011;2433;48.768;9.154;2022-12-08T02:50:33;9.43;;;5.22;;
4837;SDS011;2433;48.768;9.154;2022-12-08T02:52:58;9.10;;;6.13;;
4837;SDS011;2433;48.768;9.154;2022-12-08T02:55:27;9.18;;;5.05;;
4837;SDS011;2433;48.768;9.154;2022-12-08T03:09:32;7.53;;;5.00;;
4837;SDS011;2433;48.768;9.154;2022-12-08T03:14:40;10.35;;;5.75;;
4837;SDS011;2433;48.768;9.154;2022-12-08T03:17:11;8.05;;;4.97;;
4837;SDS011;2433;48.768;9.154;2022-12-08T03:19:37;7.45;;;5.60;;
4837;SDS011;2433;48.768;9.154;2022-12-08T03:22:04;11.02;;;5.90;;
4837;SDS011;2433;48.768;9.154;2022-12-08T03:24:40;8.88;;;5.50;;
4837;SDS011;2433;48.768;9.154;2022-12-08T03:27:08;8.93;;;5.25;;
4837;SDS011;2433;48.768;9.154;2022-12-08T03:29:36;10.52;;;4.93;;
4837;SDS011;2433;48.768;9.154;2022-12-08T03:32:12;7.87;;;5.33;;
4837;SDS011;2433;48.768;9.154;2022-12-08T03:34:44;9.38;;;5.50;;
4837;SDS011;2433;48.768;9.154;2022-12-08T03:37:11;8.85;;;4.05;;
4837;SDS011;2433;48.768;9.154;2022-12-08T03:39:37;7.78;;;5.85;;
4837;SDS011;2433;48.768;9.154;2022-12-08T03:42:03;6.53;;;5.33;;
4837;SDS011;2433;48.768;9.154;2022-12-08T03:44:29;7.60;;;4.77;;
4837;SDS011;2433;48.768;9.154;2022-12-08T03:46:54;5.37;;;4.40;;
4837;SDS011;2433;48.768;9.154;2022-12-08T03:49:20;7.60;;;5.20;;
4837;SDS011;2433;48.768;9.154;2022-12-08T03:51:45;8.17;;;5.30;;
4837;SDS011;2433;48.768;9.154;2022-12-08T03:54:11;8.50;;;4.90;;
4837;SDS011;2433;48.768;9.154;2022-12-08T03:56:37;9.83;;;5.87;;
4837;SDS011;2433;48.768;9.154;2022-12-08T03:59:03;6.25;;;4.75;;
4837;SDS011;2433;48.768;9.154;2022-12-08T04:01:30;7.32;;;4.45;;
4837;SDS011;2433;48.768;9.154;2022-12-08T04:03:56;8.90;;;5.27;;
4837;SDS011;2433;48.768;9.154;2022-12-08T04:06:22;8.70;;;5.20;;
4837;SDS011;2433;48.768;9.154;2022-12-08T04:08:48;9.30;;;5.40;;
4837;SDS011;2433;48.768;9.154;2022-12-08T04:11:14;11.15;;;5.50;;
4837;SDS011;2433;48.768;9.154;2022-12-08T04:13:40;8.17;;;4.73;;
4837;SDS011;2433;48.768;9.154;2022-12-08T04:16:07;11.05;;;5.78;;
4837;SDS011;2433;48.768;9.154;2022-12-08T04:18:33;9.73;;;5.60;;
4837;SDS011;2433;48.768;9.154;2022-12-08T04:20:59;5.55;;;4.88;;
4837;SDS011;2433;48.768;9.154;2022-12-08T04:23:24;9.47;;;5.97;;
4837;SDS011;2433;48.768;9.154;2022-12-08T04:25:51;8.53;;;5.50;;
4837;SDS011;2433;48.768;9.154;2022-12-08T04:28:17;7.65;;;4.60;;
4837;SDS011;2433;48.768;9.154;2022-12-08T04:30:43;10.03;;;5.77;;
4837;SDS011;2433;48.768;9.154;2022-12-08T04:33:08;8.93;;;5.43;;
4837;SDS011;2433;48.768;9.154;2022-12-08T04:35:34;9.20;;;5.30;;
4837;SDS011;2433;48.768;9.154;2022-12-08T04:37:59;9.47;;;5.53;;
4837;SDS011;2433;48.768;9.154;2022-12-08T04:40:25;7.33;;;5.40;;
4837;SDS011;2433;48.768;9.154;2022-12-08T04:42:50;9.50;;;4.50;;
4837;SDS011;2433;48.768;9.154;2022-12-08T04:45:16;10.17;;;5.00;;
4837;SDS011;2433;48.768;9.154;2022-12-08T04:47:42;7.00;;;4.97;;
4837;SDS011;2433;48.768;9.154;2022-12-08T04:50:08;6.87;;;4.97;;
4837;SDS011;2433;48.768;9.154;2022-12-08T04:52:34;7.70;;;4.65;;
4837;SDS011;2433;48.768;9.154;2022-12-08T04:54:59;8.87;;;5.30;;
4837;SDS011;2433;48.768;9.154;2022-12-08T04:57:25;6.77;;;4.80;;
4837;SDS011;2433;48.768;9.154;2022-12-08T04:59:50;5.07;;;4.40;;
4837;SDS011;2433;48.768;9.154;2022-12-08T05:02:16;7.07;;;4.90;;
4837;SDS011;2433;48.768;9.154;2022-12-08T05:04:41;8.30;;;5.53;;
4837;SDS011;2433;48.768;9.154;2022-12-08T05:07:07;8.03;;;4.93;;
4837;SDS011;2433;48.768;9.154;2022-12-08T05:09:33;7.70;;;4.40;;
4837;SDS011;2433;48.768;9.154;2022-12-08T05:11:58;8.23;;;4.97;;
4837;SDS011;2433;48.768;9.154;2022-12-08T05:14:24;6.73;;;6.13;;
4837;SDS011;2433;48.768;9.154;2022-12-08T05:16:49;6.33;;;4.40;;
4837;SDS011;2433;48.768;9.154;2022-12-08T05:19:15;5.90;;;4.37;;
4837;SDS011;2433;48.768;9.154;2022-12-08T05:21:41;5.90;;;4.20;;
4837;SDS011;2433;48.768;9.154;2022-12-08T05:24:07;8.00;;;4.43;;
4837;SDS011;2433;48.768;9.154;2022-12-08T05:26:33;8.55;;;4.75;;
4837;SDS011;2433;48.768;9.154;2022-12-08T05:28:58;5.00;;;3.80;;
4837;SDS011;2433;48.768;9.154;2022-12-08T05:31:24;6.60;;;4.10;;
4837;SDS011;2433;48.768;9.154;2022-12-08T05:33:50;5.35;;;3.72;;
4837;SDS011;2433;48.768;9.154;2022-12-08T05:36:17;5.90;;;4.20;;
4837;SDS011;2433;48.768;9.154;2022-12-08T05:38:43;6.82;;;4.97;;
4837;SDS011;2433;48.768;9.154;2022-12-08T05:41:17;8.55;;;4.93;;
4837;SDS011;2433;48.768;9.154;2022-12-08T05:43:44;6.22;;;4.18;;
4837;SDS011;2433;48.768;9.154;2022-12-08T05:46:10;6.57;;;3.63;;
4837;SDS011;2433;48.768;9.154;2022-12-08T05:48:36;4.03;;;3.67;;
4837;SDS011;2433;48.768;9.154;2022-12-08T05:51:02;7.47;;;4.00;;
4837;SDS011;2433;48.768;9.154;2022-12-08T05:53:27;8.17;;;4.40;;
4837;SDS011;2433;48.768;9.154;2022-12-08T05:55:53;9.93;;;4.28;;
4837;SDS011;2433;48.768;9.154;2022-12-08T05:58:20;5.80;;;3.60;;
4837;SDS011;2433;48.768;9.154;2022-12-08T06:00:46;5.75;;;3.63;;
4837;SDS011;2433;48.768;9.154;2022-12-08T06:03:13;5.00;;;4.30;;
4837;SDS011;2433;48.768;9.154;2022-12-08T06:05:40;9.07;;;5.22;;
4837;SDS011;2433;48.768;9.154;2022-12-08T06:08:06;7.60;;;5.50;;
4837;SDS011;2433;48.768;9.154;2022-12-08T06:10:32;5.47;;;3.90;;
4837;SDS011;2433;48.768;9.154;2022-12-08T06:12:58;7.67;;;4.20;;
4837;SDS011;2433;48.768;9.154;2022-12-08T06:15:24;5.80;;;4.30;;
4837;SDS011;2433;48.768;9.154;2022-12-08T06:17:49;7.23;;;4.57;;
4837;SDS011;2433;48.768;9.154;2022-12-08T06:20:15;7.33;;;4.90;;
4837;SDS011;2433;48.768;9.154;2022-12-08T06:22:40;8.70;;;5.10;;
4837;SDS011;2433;48.768;9.154;2022-12-08T06:25:06;7.70;;;4.50;;
4837;SDS011;2433;48.768;9.154;2022-12-08T06:27:32;8.37;;;5.50;;
4837;SDS011;2433;48.768;9.154;2022-12-08T06:29:58;7.90;;;4.10;;
4837;SDS011;2433;48.768;9.154;2022-12-08T06:32:23;5.37;;;4.40;;
4837;SDS011;2433;48.768;9.154;2022-12-08T06:34:49;9.03;;;4.40;;
4837;SDS011;2433;48.768;9.154;2022-12-08T06:37:14;13.33;;;5.33;;
4837;SDS011;2433;48.768;9.154;2022-12-08T06:39:40;5.37;;;4.40;;
4837;SDS011;2433;48.768;9.154;2022-12-08T06:42:05;8.07;;;4.17;;
4837;SDS011;2433;48.768;9.154;2022-12-08T06:44:50;5.65;;;3.63;;
4837;SDS011;2433;48.768;9.154;2022-12-08T06:47:15;5.57;;;3.20;;
4837;SDS011;2433;48.768;9.154;2022-12-08T06:49:41;6.23;;;4.20;;
4837;SDS011;2433;48.768;9.154;2022-12-08T06:52:06;6.93;;;3.40;;
4837;SDS011;2433;48.768;9.154;2022-12-08T06:54:32;9.80;;;3.90;;
4837;SDS011;2433;48.768;9.154;2022-12-08T06:56:58;8.30;;;3.73;;
4837;SDS011;2433;48.768;9.154;2022-12-08T06:59:23;7.07;;;4.07;;
4837;SDS011;2433;48.768;9.154;2022-12-08T07:01:50;4.03;;;3.15;;
4837;SDS011;2433;48.768;9.154;2022-12-08T07:04:16;8.27;;;3.92;;
4837;SDS011;2433;48.768;9.154;2022-12-08T07:06:42;7.20;;;3.90;;
4837;SDS011;2433;48.768;9.154;2022-12-08T07:09:08;6.07;;;3.57;;
4837;SDS011;2433;48.768;9.154;2022-12-08T07:11:33;8.30;;;4.80;;
4837;SDS011;2433;48.768;9.154;2022-12-08T07:13:59;7.70;;;3.90;;
4837;SDS011;2433;48.768;9.154;2022-12-08T07:16:24;8.07;;;4.53;;
4837;SDS011;2433;48.768;9.154;2022-12-08T07:18:50;8.13;;;4.37;;
4837;SDS011;2433;48.768;9.154;2022-12-08T07:21:15;5.97;;;3.60;;
4837;SDS011;2433;48.768;9.154;2022-12-08T07:23:42;6.38;;;3.70;;
4837;SDS011;2433;48.768;9.154;2022-12-08T07:26:10;4.32;;;3.47;;
4837;SDS011;2433;48.768;9.154;2022-12-08T07:28:37;6.43;;;4.53;;
4837;SDS011;2433;48.768;9.154;2022-12-08T07:31:04;7.35;;;3.45;;
4837;SDS011;2433;48.768;9.154;2022-12-08T07:33:30;7.07;;;3.47;;
4837;SDS011;2433;48.768;9.154;2022-12-08T07:35:57;4.65;;;2.80;;
4837;SDS011;2433;48.768;9.154;2022-12-08T07:38:26;4.45;;;2.97;;
4837;SDS011;2433;48.768;9.154;2022-12-08T07:40:52;5.90;;;3.42;;
4837;SDS011;2433;48.768;9.154;2022-12-08T07:43:18;5.60;;;3.70;;
4837;SDS011;2433;48.768;9.154;2022-12-08T07:45:45;9.13;;;4.07;;
4837;SDS011;2433;48.768;9.154;2022-12-08T07:48:11;4.72;;;3.67;;
4837;SDS011;2433;48.768;9.154;2022-12-08T07:50:37;4.50;;;3.13;;
4837;SDS011;2433;48.768;9.154;2022-12-08T07:53:03;8.82;;;4.70;;
4837;SDS011;2433;48.768;9.154;2022-12-08T07:55:30;5.50;;;4.03;;
4837;SDS011;2433;48.768;9.154;2022-12-08T07:57:56;5.80;;;3.73;;
4837;SDS011;2433;48.768;9.154;2022-12-08T08:00:22;8.57;;;4.17;;
4837;SDS011;2433;48.768;9.154;2022-12-08T08:02:47;5.93;;;3.20;;
4837;SDS011;2433;48.768;9.154;2022-12-08T08:05:13;4.70;;;3.60;;
4837;SDS011;2433;48.768;9.154;2022-12-08T08:07:39;5.30;;;3.60;;
4837;SDS011;2433;48.768;9.154;2022-12-08T08:10:07;6.65;;;4.13;;
4837;SDS011;2433;48.768;9.154;2022-12-08T08:12:34;6.72;;;4.28;;
4837;SDS011;2433;48.768;9.154;2022-12-08T08:15:00;6.90;;;3.85;;
4837;SDS011;2433;48.768;9.154;2022-12-08T08:17:26;7.40;;;4.63;;
4837;SDS011;2433;48.768;9.154;2022-12-08T08:19:52;8.02;;;4.63;;
4837;SDS011;2433;48.768;9.154;2022-12-08T08:22:18;8.20;;;4.43;;
4837;SDS011;2433;48.768;9.154;2022-12-08T08:24:43;7.40;;;4.73;;
4837;SDS011;2433;48.768;9.154;2022-12-08T08:27:09;7.27;;;4.70;;
4837;SDS011;2433;48.768;9.154;2022-12-08T08:29:34;10.30;;;5.53;;
4837;SDS011;2433;48.768;9.154;2022-12-08T08:32:00;7.40;;;5.90;;
4837;SDS011;2433;48.768;9.154;2022-12-08T08:34:25;7.30;;;4.33;;
4837;SDS011;2433;48.768;9.154;2022-12-08T08:36:51;9.30;;;6.10;;
4837;SDS011;2433;48.768;9.154;2022-12-08T08:39:17;9.10;;;5.80;;
4837;SDS011;2433;48.768;9.154;2022-12-08T08:41:42;10.67;;;6.13;;
4837;SDS011;2433;48.768;9.154;2022-12-08T08:44:07;8.80;;;5.50;;
4837;SDS011;2433;48.768;9.154;2022-12-08T08:46:33;7.03;;;5.80;;
4837;SDS011;2433;48.768;9.154;2022-12-08T08:48:59;10.57;;;5.77;;
4837;SDS011;2433;48.768;9.154;2022-12-08T08:51:25;8.02;;;5.47;;
4837;SDS011;2433;48.768;9.154;2022-12-08T08:53:50;9.07;;;6.00;;
4837;SDS011;2433;48.768;9.154;2022-12-08T08:56:16;8.20;;;6.70;;
4837;SDS011;2433;48.768;9.154;2022-12-08T08:58:46;9.60;;;5.32;;
4837;SDS011;2433;48.768;9.154;2022-12-08T09:01:13;10.68;;;6.05;;
4837;SDS011;2433;48.768;9.154;2022-12-08T09:03:40;6.43;;;5.05;;
4837;SDS011;2433;48.768;9.154;2022-12-08T09:06:05;9.67;;;5.53;;
4837;SDS011;2433;48.768;9.154;2022-12-08T09:08:31;10.40;;;5.77;;
4837;SDS011;2433;48.768;9.154;2022-12-08T09:10:56;7.67;;;4.60;;
4837;SDS011;2433;48.768;9.154;2022-12-08T09:13:22;9.10;;;5.30;;
4837;SDS011;2433;48.768;9.154;2022-12-08T09:15:48;6.83;;;4.90;;
4837;SDS011;2433;48.768;9.154;2022-12-08T09:18:13;7.70;;;4.60;;
4837;SDS011;2433;48.768;9.154;2022-12-08T09:20:39;8.00;;;4.73;;
4837;SDS011;2433;48.768;9.154;2022-12-08T09:23:04;6.20;;;4.40;;
4837;SDS011;2433;48.768;9.154;2022-12-08T09:25:30;8.10;;;4.83;;
4837;SDS011;2433;48.768;9.154;2022-12-08T09:27:55;8.37;;;5.63;;
4837;SDS011;2433;48.768;9.154;2022-12-08T09:30:21;6.93;;;5.57;;
4837;SDS011;2433;48.768;9.154;2022-12-08T09:32:47;7.47;;;4.83;;
4837;SDS011;2433;48.768;9.154;2022-12-08T09:35:12;9.00;;;5.10;;
4837;SDS011;2433;48.768;9.154;2022-12-08T09:37:38;8.73;;;5.73;;
4837;SDS011;2433;48.768;9.154;2022-12-08T09:40:04;7.47;;;4.78;;
4837;SDS011;2433;48.768;9.154;2022-12-08T09:45:44;5.32;;;3.97;;
4837;SDS011;2433;48.768;9.154;2022-12-08T09:48:13;8.23;;;5.30;;
4837;SDS011;2433;48.768;9.154;2022-12-08T09:50:56;9.57;;;6.45;;
4837;SDS011;2433;48.768;9.154;2022-12-08T09:58:55;10.98;;;5.60;;
4837;SDS011;2433;48.768;9.154;2022-12-08T10:01:31;7.70;;;4.50;;
4837;SDS011;2433;48.768;9.154;2022-12-08T10:03:59;7.47;;;5.57;;
4837;SDS011;2433;48.768;9.154;2022-12-08T10:06:45;8.50;;;5.30;;
4837;SDS011;2433;48.768;9.154;2022-12-08T10:12:18;6.38;;;4.93;;
4837;SDS011;2433;48.768;9.154;2022-12-08T10:17:37;5.75;;;3.55;;
4837;SDS011;2433;48.768;9.154;2022-12-08T10:20:09;8.40;;;4.68;;
4837;SDS011;2433;48.768;9.154;2022-12-08T10:22:37;5.57;;;4.15;;
4837;SDS011;2433;48.768;9.154;2022-12-08T10:25:04;7.60;;;4.90;;
4837;SDS011;2433;48.768;9.154;2022-12-08T10:27:35;8.60;;;4.60;;
4837;SDS011;2433;48.768;9.154;2022-12-08T10:30:02;7.97;;;4.93;;
4837;SDS011;2433;48.768;9.154;2022-12-08T10:32:34;9.63;;;5.93;;
4837;SDS011;2433;48.768;9.154;2022-12-08T10:35:10;9.20;;;4.87;;
4837;SDS011;2433;48.768;9.154;2022-12-08T10:37:37;4.93;;;4.18;;
4837;SDS011;2433;48.768;9.154;2022-12-08T10:42:36;8.20;;;5.07;;
4837;SDS011;2433;48.768;9.154;2022-12-08T10:47:39;4.80;;;3.55;;
4837;SDS011;2433;48.768;9.154;2022-12-08T10:52:38;5.57;;;3.90;;
4837;SDS011;2433;48.768;9.154;2022-12-08T10:55:14;4.40;;;3.50;;
4837;SDS011;2433;48.768;9.154;2022-12-08T10:57:41;5.77;;;4.00;;
4837;SDS011;2433;48.768;9.154;2022-12-08T11:00:10;4.40;;;3.63;;
4837;SDS011;2433;48.768;9.154;2022-12-08T11:05:27;4.80;;;3.97;;
4837;SDS011;2433;48.768;9.154;2022-12-08T11:07:55;6.93;;;4.23;;
4837;SDS011;2433;48.768;9.154;2022-12-08T11:10:26;5.23;;;4.20;;
4837;SDS011;2433;48.768;9.154;2022-12-08T11:12:57;7.03;;;4.33;;
4837;SDS011;2433;48.768;9.154;2022-12-08T11:15:24;5.77;;;4.37;;
4837;SDS011;2433;48.768;9.154;2022-12-08T11:17:59;4.80;;;3.97;;
4837;SDS011;2433;48.768;9.154;2022-12-08T11:20:36;6.30;;;3.70;;
4837;SDS011;2433;48.768;9.154;2022-12-08T11:23:03;7.65;;;3.75;;
4837;SDS011;2433;48.768;9.154;2022-12-08T11:25:29;4.60;;;3.50;;
4837;SDS011;2433;48.768;9.154;2022-12-08T11:27:58;4.00;;;3.60;;
4837;SDS011;2433;48.768;9.154;2022-12-08T11:30:26;4.37;;;3.70;;
4837;SDS011;2433;48.768;9.154;2022-12-08T11:35:50;3.80;;;2.35;;
4837;SDS011;2433;48.768;9.154;2022-12-08T11:38:23;6.03;;;3.90;;
4837;SDS011;2433;48.768;9.154;2022-12-08T11:41:02;3.97;;;3.22;;
4837;SDS011;2433;48.768;9.154;2022-12-08T11:45:59;5.65;;;3.47;;
4837;SDS011;2433;48.768;9.154;2022-12-08T11:48:45;7.20;;;3.90;;
4837;SDS011;2433;48.768;9.154;2022-12-08T11:51:19;6.25;;;3.67;;
4837;SDS011;2433;48.768;9.154;2022-12-08T11:53:58;5.38;;;3.35;;
4837;SDS011;2433;48.768;9.154;2022-12-08T11:56:34;9.10;;;3.78;;
4837;SDS011;2433;48.768;9.154;2022-12-08T11:59:06;5.03;;;2.95;;
4837;SDS011;2433;48.768;9.154;2022-12-08T12:01:36;4.65;;;3.10;;
4837;SDS011;2433;48.768;9.154;2022-12-08T12:14:55;6.30;;;3.90;;
4837;SDS011;2433;48.768;9.154;2022-12-08T12:20:31;5.07;;;4.05;;
4837;SDS011;2433;48.768;9.154;2022-12-08T12:23:01;6.05;;;3.40;;
4837;SDS011;2433;48.768;9.154;2022-12-08T12:25:30;6.38;;;3.20;;
4837;SDS011;2433;48.768;9.154;2022-12-08T12:27:57;6.63;;;3.40;;
4837;SDS011;2433;48.768;9.154;2022-12-08T12:30:26;8.02;;;3.80;;
4837;SDS011;2433;48.768;9.154;2022-12-08T12:32:57;4.43;;;3.22;;
4837;SDS011;2433;48.768;9.154;2022-12-08T12:35:26;7.05;;;4.55;;
4837;SDS011;2433;48.768;9.154;2022-12-08T12:37:55;8.13;;;3.85;;
4837;SDS011;2433;48.768;9.154;2022-12-08T12:40:23;5.38;;;3.55;;
4837;SDS011;2433;48.768;9.154;2022-12-08T12:50:36;5.53;;;3.78;;
4837;SDS011;2433;48.768;9.154;2022-12-08T13:03:35;3.80;;;3.15;;
4837;SDS011;2433;48.768;9.154;2022-12-08T13:06:05;4.85;;;2.92;;
4837;SDS011;2433;48.768;9.154;2022-12-08T13:08:31;5.47;;;3.30;;
4837;SDS011;2433;48.768;9.154;2022-12-08T13:13:33;3.15;;;2.83;;
4837;SDS011;2433;48.768;9.154;2022-12-08T13:18:35;4.00;;;3.20;;
4837;SDS011;2433;48.768;9.154;2022-12-08T13:21:10;4.55;;;3.53;;
4837;SDS011;2433;48.768;9.154;2022-12-08T13:23:44;3.17;;;2.95;;
4837;SDS011;2433;48.768;9.154;2022-12-08T13:26:45;5.13;;;3.35;;
4837;SDS011;2433;48.768;9.154;2022-12-08T13:29:13;4.88;;;3.70;;
4837;SDS011;2433;48.768;9.154;2022-12-08T13:34:16;6.25;;;4.13;;
4837;SDS011;2433;48.768;9.154;2022-12-08T13:39:47;5.28;;;3.47;;
4837;SDS011;2433;48.768;9.154;2022-12-08T13:42:29;6.40;;;4.07;;
4837;SDS011;2433;48.768;9.154;2022-12-08T13:44:58;4.40;;;4.00;;
4837;SDS011;2433;48.768;9.154;2022-12-08T13:47:33;6.05;;;3.58;;
4837;SDS011;2433;48.768;9.154;2022-12-08T13:50:12;4.70;;;3.03;;
4837;SDS011;2433;48.768;9.154;2022-12-08T13:52:50;4.93;;;3.13;;
4837;SDS011;2433;48.768;9.154;2022-12-08T13:55:24;4.65;;;3.20;;
4837;SDS011;2433;48.768;9.154;2022-12-08T13:57:54;5.15;;;3.10;;
4837;SDS011;2433;48.768;9.154;2022-12-08T14:00:21;3.40;;;2.90;;
4837;SDS011;2433;48.768;9.154;2022-12-08T14:02:48;5.25;;;3.70;;
4837;SDS011;2433;48.768;9.154;2022-12-08T14:05:16;6.40;;;3.70;;
4837;SDS011;2433;48.768;9.154;2022-12-08T14:07:43;5.07;;;3.83;;
4837;SDS011;2433;48.768;9.154;2022-12-08T14:10:12;3.93;;;3.10;;
4837;SDS011;2433;48.768;9.154;2022-12-08T14:12:43;6.35;;;3.17;;
4837;SDS011;2433;48.768;9.154;2022-12-08T14:15:11;4.40;;;3.15;;
4837;SDS011;2433;48.768;9.154;2022-12-08T14:17:38;4.97;;;4.22;;
4837;SDS011;2433;48.768;9.154;2022-12-08T14:22:37;5.38;;;3.25;;
4837;SDS011;2433;48.768;9.154;2022-12-08T14:25:04;3.53;;;2.80;;
4837;SDS011;2433;48.768;9.154;2022-12-08T14:27:32;3.13;;;2.58;;
4837;SDS011;2433;48.768;9.154;2022-12-08T14:30:00;3.35;;;3.05;;
4837;SDS011;2433;48.768;9.154;2022-12-08T14:32:50;5.68;;;3.78;;
4837;SDS011;2433;48.768;9.154;2022-12-08T14:35:26;4.75;;;3.55;;
4837;SDS011;2433;48.768;9.154;2022-12-08T14:37:56;3.85;;;3.38;;
4837;SDS011;2433;48.768;9.154;2022-12-08T14:40:24;4.22;;;3.50;;
4837;SDS011;2433;48.768;9.154;2022-12-08T14:45:31;5.13;;;3.65;;
4837;SDS011;2433;48.768;9.154;2022-12-08T14:53:34;5.53;;;3.55;;
4837;SDS011;2433;48.768;9.154;2022-12-08T14:56:05;3.38;;;3.03;;
4837;SDS011;2433;48.768;9.154;2022-12-08T14:59:02;4.38;;;3.38;;
4837;SDS011;2433;48.768;9.154;2022-12-08T15:01:30;5.50;;;3.40;;
4837;SDS011;2433;48.768;9.154;2022-12-08T15:04:29;6.72;;;3.70;;
4837;SDS011;2433;48.768;9.154;2022-12-08T15:12:00;5.00;;;3.33;;
4837;SDS011;2433;48.768;9.154;2022-12-08T15:14:27;5.47;;;3.42;;
4837;SDS011;2433;48.768;9.154;2022-12-08T15:16:55;5.78;;;3.58;;
4837;SDS011;2433;48.768;9.154;2022-12-08T15:21:48;3.88;;;3.30;;
4837;SDS011;2433;48.768;9.154;2022-12-08T15:24:14;4.23;;;3.53;;
4837;SDS011;2433;48.768;9.154;2022-12-08T15:26:43;5.47;;;3.40;;
4837;SDS011;2433;48.768;9.154;2022-12-08T15:29:12;5.78;;;3.70;;
4837;SDS011;2433;48.768;9.154;2022-12-08T15:31:49;4.40;;;3.28;;
4837;SDS011;2433;48.768;9.154;2022-12-08T15:34:17;4.45;;;3.78;;
4837;SDS011;2433;48.768;9.154;2022-12-08T15:36:43;4.30;;;3.88;;
4837;SDS011;2433;48.768;9.154;2022-12-08T15:41:58;6.10;;;3.28;;
4837;SDS011;2433;48.768;9.154;2022-12-08T15:44:24;6.10;;;3.90;;
4837;SDS011;2433;48.768;9.154;2022-12-08T15:46:50;7.50;;;3.20;;
4837;SDS011;2433;48.768;9.154;2022-12-08T15:49:16;5.03;;;3.90;;
4837;SDS011;2433;48.768;9.154;2022-12-08T15:51:43;4.78;;;3.58;;
4837;SDS011;2433;48.768;9.154;2022-12-08T15:54:09;3.78;;;3.08;;
4837;SDS011;2433;48.768;9.154;2022-12-08T15:56:35;4.03;;;3.50;;
4837;SDS011;2433;48.768;9.154;2022-12-08T15:59:03;6.35;;;4.28;;
4837;SDS011;2433;48.768;9.154;2022-12-08T16:01:28;3.27;;;2.97;;
4837;SDS011;2433;48.768;9.154;2022-12-08T16:03:54;6.37;;;4.77;;
4837;SDS011;2433;48.768;9.154;2022-12-08T16:06:20;5.40;;;3.70;;
4837;SDS011;2433;48.768;9.154;2022-12-08T16:08:46;6.40;;;3.65;;
4837;SDS011;2433;48.768;9.154;2022-12-08T16:11:12;5.57;;;3.80;;
4837;SDS011;2433;48.768;9.154;2022-12-08T16:13:56;5.00;;;3.70;;
4837;SDS011;2433;48.768;9.154;2022-12-08T16:16:24;6.50;;;4.07;;
4837;SDS011;2433;48.768;9.154;2022-12-08T16:18:52;5.07;;;4.20;;
4837;SDS011;2433;48.768;9.154;2022-12-08T16:21:18;5.80;;;4.27;;
4837;SDS011;2433;48.768;9.154;2022-12-08T16:23:43;4.67;;;3.60;;
4837;SDS011;2433;48.768;9.154;2022-12-08T16:26:16;8.30;;;4.17;;
4837;SDS011;2433;48.768;9.154;2022-12-08T16:28:43;6.90;;;4.22;;
4837;SDS011;2433;48.768;9.154;2022-12-08T16:31:10;5.67;;;3.90;;
4837;SDS011;2433;48.768;9.154;2022-12-08T16:33:37;6.65;;;4.57;;
4837;SDS011;2433;48.768;9.154;2022-12-08T16:36:02;4.90;;;3.80;;
4837;SDS011;2433;48.768;9.154;2022-12-08T16:38:28;5.23;;;4.27;;
4837;SDS011;2433;48.768;9.154;2022-12-08T16:40:53;7.97;;;4.40;;
4837;SDS011;2433;48.768;9.154;2022-12-08T16:43:38;5.85;;;4.45;;
4837;SDS011;2433;48.768;9.154;2022-12-08T16:46:03;6.30;;;4.20;;
4837;SDS011;2433;48.768;9.154;2022-12-08T16:48:29;7.43;;;4.27;;
4837;SDS011;2433;48.768;9.154;2022-12-08T16:50:55;7.57;;;3.83;;
4837;SDS011;2433;48.768;9.154;2022-12-08T16:53:21;7.20;;;5.07;;
4837;SDS011;2433;48.768;9.154;2022-12-08T16:55:47;7.37;;;3.80;;
4837;SDS011;2433;48.768;9.154;2022-12-08T16:58:13;4.35;;;3.42;;
4837;SDS011;2433;48.768;9.154;2022-12-08T17:00:40;4.93;;;3.80;;
4837;SDS011;2433;48.768;9.154;2022-12-08T17:03:06;7.53;;;4.60;;
4837;SDS011;2433;48.768;9.154;2022-12-08T17:05:35;6.10;;;4.60;;
4837;SDS011;2433;48.768;9.154;2022-12-08T17:08:04;6.65;;;4.53;;
4837;SDS011;2433;48.768;9.154;2022-12-08T17:10:30;6.53;;;4.57;;
4837;SDS011;2433;48.768;9.154;2022-12-08T17:12:59;5.95;;;3.88;;
4837;SDS011;2433;48.768;9.154;2022-12-08T17:15:25;7.75;;;4.97;;
4837;SDS011;2433;48.768;9.154;2022-12-08T17:17:51;6.83;;;4.43;;
4837;SDS011;2433;48.768;9.154;2022-12-08T17:20:17;5.85;;;4.13;;
4837;SDS011;2433;48.768;9.154;2022-12-08T17:22:44;9.20;;;5.50;;
4837;SDS011;2433;48.768;9.154;2022-12-08T17:25:11;6.00;;;4.97;;